Time;durP1;ratioP1;P1;durP2;ratioP2;P2;SDS_P1;SDS_P2;PMS_P1;PMS_P2;Temp;Humidity;BMP_temperature;BMP_pressure;BME280_temperature;BME280_humidity;BME280_pressure;Samples;Min_cycle;Max_cycle;Signal;HPM_P1;HPM_P2
2022/12/07 00:00:08;;;;;;;25.38;17.88;;;5.40;99.90;5.80;99735.00;;;;341796;28;89424;-90
2022/12/07 00:00:20;;;;;;;25.55;17.98;;;5.40;99.90;5.90;99745.00;;;;342257;28;83489;-90
2022/12/07 00:00:32;;;;;;;24.42;17.08;;;5.40;99.90;6.00;99733.00;;;;343033;28;91444;-91
2022/12/07 00:00:44;;;;;;;23.17;17.48;;;5.50;99.90;6.00;99730.00;;;;342239;28;85842;-90
2022/12/07 00:01:05;;;;;;;23.20;17.70;;;5.50;99.90;5.80;99746.00;;;;340549;28;90100;-90
2022/12/07 00:01:23;;;;;;;27.40;18.73;;;5.50;99.90;5.70;99739.00;;;;342334;28;86465;-91
2022/12/07 00:01:39;;;;;;;23.60;17.83;;;5.50;99.90;5.80;99737.00;;;;340576;28;93188;-90
2022/12/07 00:01:51;;;;;;;24.58;17.88;;;5.50;99.90;5.80;99734.00;;;;340849;28;86448;-90
2022/12/07 00:02:03;;;;;;;24.27;17.52;;;5.50;99.90;5.90;99739.00;;;;339219;28;92046;-91
2022/12/07 00:02:15;;;;;;;24.33;17.23;;;5.50;99.90;5.80;99736.00;;;;341173;28;87000;-90
2022/12/07 00:02:31;;;;;;;25.50;17.88;;;5.50;99.90;5.80;99744.00;;;;340717;28;91965;-90
2022/12/07 00:02:44;;;;;;;26.83;18.75;;;5.50;99.90;5.80;99741.00;;;;342629;28;85274;-90
2022/12/07 00:02:56;;;;;;;26.42;18.45;;;5.50;99.90;5.90;99743.00;;;;343730;28;90068;-90
2022/12/07 00:03:08;;;;;;;25.70;17.70;;;5.50;99.90;6.00;99740.00;;;;343643;28;86306;-90
2022/12/07 00:03:20;;;;;;;25.45;17.10;;;5.50;99.90;5.90;99749.00;;;;341116;28;90051;-90
2022/12/07 00:03:33;;;;;;;24.73;17.45;;;5.50;99.90;5.90;99733.00;;;;342818;28;86548;-90
2022/12/07 00:03:46;;;;;;;26.67;18.33;;;5.50;99.90;6.00;99735.00;;;;344849;28;92549;-89
2022/12/07 00:04:06;;;;;;;26.27;17.85;;;5.50;99.90;5.80;99743.00;;;;341322;28;86000;-91
2022/12/07 00:04:18;;;;;;;23.88;17.52;;;5.50;99.90;5.80;99732.00;;;;342293;28;90369;-91
2022/12/07 00:04:31;;;;;;;23.10;17.05;;;5.50;99.90;5.70;99744.00;;;;341121;28;86007;-90
2022/12/07 00:04:43;;;;;;;21.83;15.75;;;5.50;99.90;5.60;99736.00;;;;342046;28;89666;-90
2022/12/07 00:04:54;;;;;;;22.88;15.98;;;5.50;99.90;5.60;99740.00;;;;342596;28;86257;-91
2022/12/07 00:05:07;;;;;;;24.25;17.15;;;5.50;99.90;5.60;99734.00;;;;345000;28;90904;-90
2022/12/07 00:05:19;;;;;;;24.83;18.25;;;5.50;99.90;5.60;99735.00;;;;342663;28;86146;-90
2022/12/07 00:05:32;;;;;;;24.25;17.95;;;5.50;99.90;5.60;99733.00;;;;343834;28;90868;-87
2022/12/07 00:05:44;;;;;;;25.15;17.90;;;5.50;99.90;5.60;99735.00;;;;344068;28;86784;-88
2022/12/07 00:05:59;;;;;;;25.08;17.52;;;5.50;99.90;5.60;99741.00;;;;340985;28;92851;-88
2022/12/07 00:06:13;;;;;;;25.55;18.15;;;5.50;99.90;5.70;99733.00;;;;342447;28;85907;-88
2022/12/07 00:06:25;;;;;;;24.38;17.98;;;5.50;99.90;5.70;99737.00;;;;343753;28;91344;-88
2022/12/07 00:06:45;;;;;;;22.70;17.55;;;5.50;99.90;5.90;99741.00;;;;342585;28;86523;-88
2022/12/07 00:06:57;;;;;;;22.95;17.35;;;5.50;99.90;5.90;99740.00;;;;343668;28;90285;-88
2022/12/07 00:07:09;;;;;;;24.90;18.08;;;5.50;99.90;5.80;99734.00;;;;343714;28;86269;-88
2022/12/07 00:07:22;;;;;;;24.60;18.45;;;5.50;99.90;5.80;99721.00;;;;340711;28;90237;-88
2022/12/07 00:07:38;;;;;;;23.52;18.45;;;5.50;99.90;5.90;99742.00;;;;343629;28;86437;-88
2022/12/07 00:07:50;;;;;;;24.42;18.30;;;5.50;99.90;6.00;99735.00;;;;341944;28;90611;-88
2022/12/07 00:08:02;;;;;;;27.05;18.65;;;5.50;99.90;6.10;99740.00;;;;340682;28;86673;-88
2022/12/07 00:08:14;;;;;;;26.77;18.67;;;5.50;99.90;6.20;99733.00;;;;343385;28;91688;-88
2022/12/07 00:08:26;;;;;;;24.92;18.13;;;5.60;99.90;6.20;99744.00;;;;340754;28;87825;-88
2022/12/07 00:08:38;;;;;;;22.35;17.13;;;5.60;99.90;6.10;99732.00;;;;341901;28;90717;-88
2022/12/07 00:08:50;;;;;;;22.95;17.00;;;5.60;99.90;5.90;99741.00;;;;340969;28;87244;-88
2022/12/07 00:09:04;;;;;;;23.38;16.67;;;5.60;99.90;6.00;99726.00;;;;343109;28;90968;-88
2022/12/07 00:09:16;;;;;;;23.70;16.33;;;5.60;99.90;6.10;99727.00;;;;341250;28;87217;-88
2022/12/07 00:09:28;;;;;;;23.02;16.73;;;5.60;99.90;6.00;99731.00;;;;343459;28;92159;-87
2022/12/07 00:09:41;;;;;;;23.23;16.52;;;5.60;99.90;5.80;99735.00;;;;341154;28;85880;-89
2022/12/07 00:09:53;;;;;;;24.17;16.95;;;5.60;99.90;5.90;99733.00;;;;343765;28;87888;-88
2022/12/07 00:10:06;;;;;;;25.33;17.45;;;5.60;99.90;6.00;99748.00;;;;342656;28;86356;-88
2022/12/07 00:10:18;;;;;;;26.25;17.48;;;5.60;99.90;6.00;99728.00;;;;344396;28;91797;-88
2022/12/07 00:10:34;;;;;;;25.02;17.08;;;5.60;99.90;5.90;99735.00;;;;343379;28;86390;-89
2022/12/07 00:10:46;;;;;;;31.08;16.95;;;5.60;99.90;5.80;99733.00;;;;340130;28;90475;-89
2022/12/07 00:11:07;;;;;;;31.98;16.52;;;5.60;99.90;6.00;99737.00;;;;344168;28;86673;-88
2022/12/07 00:11:20;;;;;;;21.10;15.13;;;5.60;99.90;6.10;99734.00;;;;342727;28;91981;-88
2022/12/07 00:11:33;;;;;;;22.05;15.73;;;5.70;99.90;6.20;99727.00;;;;345507;28;85027;-89
2022/12/07 00:11:47;;;;;;;24.02;16.95;;;5.70;99.90;6.00;99729.00;;;;341425;28;91863;-88
2022/12/07 00:11:59;;;;;;;25.10;17.80;;;5.70;99.90;5.70;99732.00;;;;344460;28;86969;-88
2022/12/07 00:12:11;;;;;;;24.05;17.20;;;5.60;99.90;5.80;99736.00;;;;341472;28;90558;-88
2022/12/07 00:12:23;;;;;;;23.15;17.83;;;5.60;99.90;5.90;99730.00;;;;343065;28;87027;-89
2022/12/07 00:12:35;;;;;;;23.65;17.85;;;5.60;99.90;6.10;99737.00;;;;342625;28;92842;-88
2022/12/07 00:12:47;;;;;;;23.83;17.25;;;5.60;99.90;6.20;99746.00;;;;341719;28;87179;-89
2022/12/07 00:12:58;;;;;;;24.95;17.35;;;5.70;99.90;6.20;99734.00;;;;338765;28;91847;-89
2022/12/07 00:13:10;;;;;;;24.00;17.05;;;5.70;99.90;6.20;99745.00;;;;342975;28;86134;-88
2022/12/07 00:13:22;;;;;;;21.85;16.55;;;5.70;99.90;6.10;99733.00;;;;342442;28;89753;-89
2022/12/07 00:13:34;;;;;;;20.52;16.05;;;5.70;99.90;6.10;99735.00;;;;344520;28;87200;-89
2022/12/07 00:13:47;;;;;;;22.90;16.50;;;5.70;99.90;6.10;99742.00;;;;341628;28;90448;-89
2022/12/07 00:14:02;;;;;;;25.10;17.02;;;5.70;99.90;6.20;99729.00;;;;343209;28;85821;-88
2022/12/07 00:14:15;;;;;;;23.25;16.67;;;5.70;99.90;6.20;99742.00;;;;341812;28;91845;-88
2022/12/07 00:14:27;;;;;;;23.92;16.98;;;5.70;99.90;6.20;99735.00;;;;340395;28;86228;-89
2022/12/07 00:14:39;;;;;;;23.48;16.48;;;5.70;99.90;6.10;99728.00;;;;342671;28;92178;-89
2022/12/07 00:14:51;;;;;;;22.50;16.45;;;5.70;99.90;5.90;99731.00;;;;344660;28;86596;-89
2022/12/07 00:15:03;;;;;;;21.35;15.35;;;5.70;99.90;6.00;99736.00;;;;344134;28;89970;-88
2022/12/07 00:15:15;;;;;;;22.45;15.25;;;5.70;99.90;6.00;99738.00;;;;342074;28;83436;-88
2022/12/07 00:15:27;;;;;;;22.50;15.68;;;5.70;99.90;6.10;99733.00;;;;340480;28;90660;-88
2022/12/07 00:15:39;;;;;;;24.10;17.13;;;5.80;99.90;6.20;99729.00;;;;344654;28;87610;-88
2022/12/07 00:15:51;;;;;;;25.65;17.60;;;5.80;99.90;6.20;99740.00;;;;341451;28;92156;-89
2022/12/07 00:16:07;;;;;;;26.40;17.40;;;5.80;99.90;6.10;99736.00;;;;344578;28;86290;-89
2022/12/07 00:16:21;;;;;;;25.23;17.73;;;5.80;99.90;6.10;99743.00;;;;341574;28;91122;-88
2022/12/07 00:16:33;;;;;;;22.70;17.27;;;5.80;99.90;6.00;99740.00;;;;343457;28;84708;-88
2022/12/07 00:16:45;;;;;;;21.50;16.55;;;5.70;99.90;6.20;99747.00;;;;342907;28;91155;-89
2022/12/07 00:16:58;;;;;;;23.00;16.88;;;5.70;99.90;6.10;99732.00;;;;344292;28;87582;-88
2022/12/07 00:17:09;;;;;;;22.17;16.33;;;5.70;99.90;6.10;99723.00;;;;341491;28;90578;-89
2022/12/07 00:17:21;;;;;;;22.40;16.38;;;5.70;99.90;6.20;99731.00;;;;345822;28;85776;-88
2022/12/07 00:17:33;;;;;;;23.10;16.48;;;5.70;99.90;6.00;99738.00;;;;341583;28;90637;-89
2022/12/07 00:17:45;;;;;;;23.75;16.60;;;5.70;99.90;6.10;99731.00;;;;342071;28;87094;-88
2022/12/07 00:17:57;;;;;;;22.25;17.10;;;5.70;99.90;5.80;99734.00;;;;341653;28;90685;-87
2022/12/07 00:18:10;;;;;;;21.80;17.15;;;5.70;99.90;5.70;99740.00;;;;342139;28;85897;-88
2022/12/07 00:18:21;;;;;;;24.73;17.83;;;5.70;99.90;5.90;99728.00;;;;340308;28;91548;-88
2022/12/07 00:18:34;;;;;;;25.20;17.48;;;5.70;99.90;6.10;99730.00;;;;341703;28;87166;-88
2022/12/07 00:18:46;;;;;;;23.70;16.75;;;5.70;99.90;6.10;99734.00;;;;343169;28;92727;-89
2022/12/07 00:18:58;;;;;;;22.00;15.95;;;5.70;99.90;6.20;99730.00;;;;341785;28;85764;-88
2022/12/07 00:19:11;;;;;;;20.75;16.02;;;5.70;99.90;6.20;99730.00;;;;342776;28;91233;-89
2022/12/07 00:19:23;;;;;;;20.80;16.30;;;5.70;99.90;6.30;99725.00;;;;342969;28;85784;-89
2022/12/07 00:19:35;;;;;;;22.85;16.70;;;5.70;99.90;6.30;99735.00;;;;342773;28;90681;-89
2022/12/07 00:19:46;;;;;;;22.98;16.13;;;5.80;99.90;6.30;99734.00;;;;341624;28;85287;-89
2022/12/07 00:19:58;;;;;;;22.08;15.70;;;5.80;99.90;6.30;99736.00;;;;341477;28;91811;-88
2022/12/07 00:20:11;;;;;;;23.67;15.95;;;5.80;99.90;6.30;99729.00;;;;341723;28;87441;-88
2022/12/07 00:20:23;;;;;;;24.55;17.13;;;5.80;99.90;6.40;99730.00;;;;344036;28;91214;-89
2022/12/07 00:20:34;;;;;;;22.85;16.77;;;5.80;99.90;6.30;99733.00;;;;343114;28;87065;-87
2022/12/07 00:20:47;;;;;;;24.42;17.25;;;5.80;99.90;6.30;99727.00;;;;344475;28;92623;-88
2022/12/07 00:21:03;;;;;;;24.70;17.17;;;5.80;99.90;6.20;99735.00;;;;340468;28;86030;-89
2022/12/07 00:21:23;;;;;;;24.30;17.17;;;5.90;99.90;6.10;99731.00;;;;339170;28;90775;-88
2022/12/07 00:21:35;;;;;;;25.08;17.42;;;5.80;99.90;6.10;99732.00;;;;340432;28;87239;-89
2022/12/07 00:21:47;;;;;;;23.98;17.13;;;5.80;99.90;6.20;99722.00;;;;340405;28;89960;-88
2022/12/07 00:21:59;;;;;;;22.83;16.45;;;5.80;99.90;6.10;99730.00;;;;341993;28;86080;-88
2022/12/07 00:22:11;;;;;;;21.00;15.80;;;5.80;99.90;6.10;99733.00;;;;341767;28;90750;-88
2022/12/07 00:22:25;;;;;;;22.27;16.10;;;5.80;99.90;6.30;99731.00;;;;343596;28;86027;-88
2022/12/07 00:22:37;;;;;;;22.67;15.70;;;5.80;99.90;6.00;99725.00;;;;340449;28;90841;-89
2022/12/07 00:22:49;;;;;;;23.02;16.05;;;5.80;99.90;6.00;99732.00;;;;341951;28;87376;-89
2022/12/07 00:23:01;;;;;;;23.77;17.10;;;5.80;99.90;6.20;99724.00;;;;344444;28;92389;-89
2022/12/07 00:23:13;;;;;;;22.15;16.73;;;5.80;99.90;5.90;99724.00;;;;340890;28;87235;-89
2022/12/07 00:23:33;;;;;;;21.20;16.52;;;5.80;99.90;5.60;99716.00;;;;340601;28;90306;-89
2022/12/07 00:23:46;;;;;;;23.17;17.35;;;5.80;99.90;5.50;99733.00;;;;342075;28;86295;-89
2022/12/07 00:23:58;;;;;;;25.73;18.33;;;5.70;99.90;5.60;99725.00;;;;340636;28;90255;-88
2022/12/07 00:24:11;;;;;;;25.48;17.92;;;5.70;99.90;5.60;99726.00;;;;342268;28;85786;-88
2022/12/07 00:24:23;;;;;;;24.60;17.73;;;5.70;99.90;5.70;99730.00;;;;343152;28;91078;-88
2022/12/07 00:24:34;;;;;;;23.95;17.50;;;5.70;99.90;5.80;99722.00;;;;340833;28;87081;-89
2022/12/07 00:24:46;;;;;;;23.95;17.45;;;5.60;99.90;5.70;99725.00;;;;340471;28;92038;-88
2022/12/07 00:24:59;;;;;;;22.95;17.05;;;5.70;99.90;5.70;99716.00;;;;340814;28;87077;-88
2022/12/07 00:25:11;;;;;;;22.52;16.30;;;5.60;99.90;5.90;99725.00;;;;341753;28;91196;-88
2022/12/07 00:25:23;;;;;;;20.85;15.65;;;5.60;99.90;6.00;99719.00;;;;343436;28;86091;-88
2022/12/07 00:25:35;;;;;;;21.13;15.45;;;5.60;99.90;6.10;99706.00;;;;343712;28;88273;-89
2022/12/07 00:25:49;;;;;;;20.83;15.38;;;5.70;99.90;6.10;99729.00;;;;343960;28;86112;-89
2022/12/07 00:26:08;;;;;;;21.85;15.98;;;5.60;99.90;6.10;99717.00;;;;343796;28;90962;-88
2022/12/07 00:26:23;;;;;;;22.83;17.17;;;5.70;99.90;6.10;99727.00;;;;342492;28;85422;-88
2022/12/07 00:26:37;;;;;;;21.92;16.73;;;5.70;99.90;6.20;99726.00;;;;342275;28;91272;-88
2022/12/07 00:26:49;;;;;;;22.65;16.67;;;5.70;99.90;6.20;99725.00;;;;343813;28;85939;-88
2022/12/07 00:27:01;;;;;;;24.73;17.20;;;5.70;99.90;6.20;99717.00;;;;343058;28;90853;-88
2022/12/07 00:27:13;;;;;;;24.60;17.10;;;5.70;99.90;6.10;99719.00;;;;343427;28;83595;-88
2022/12/07 00:27:27;;;;;;;24.67;17.25;;;5.70;99.90;6.10;99726.00;;;;342728;28;90811;-88
2022/12/07 00:27:39;;;;;;;24.48;17.05;;;5.80;99.90;6.10;99719.00;;;;340715;28;87534;-89
2022/12/07 00:27:55;;;;;;;23.10;16.48;;;5.70;99.90;6.00;99720.00;;;;342933;28;88316;-88
2022/12/07 00:28:09;;;;;;;21.33;16.30;;;5.70;99.90;5.90;99724.00;;;;341873;28;86102;-88
2022/12/07 00:28:21;;;;;;;21.77;16.77;;;5.70;99.90;5.80;99724.00;;;;344237;28;90701;-88
2022/12/07 00:28:35;;;;;;;22.98;16.95;;;5.70;99.90;5.70;99717.00;;;;343100;28;86911;-88
2022/12/07 00:28:52;;;;;;;23.27;16.88;;;5.70;99.90;5.70;99722.00;;;;342758;28;89987;-88
2022/12/07 00:29:12;;;;;;;22.88;17.02;;;5.70;99.90;5.80;99721.00;;;;343268;28;86529;-89
2022/12/07 00:29:23;;;;;;;23.05;17.00;;;5.70;99.90;5.80;99723.00;;;;341541;28;90336;-89
2022/12/07 00:29:36;;;;;;;24.45;18.15;;;5.70;99.90;5.80;99721.00;;;;342015;28;86498;-89
2022/12/07 00:29:49;;;;;;;25.05;18.17;;;5.70;99.90;5.90;99722.00;;;;342684;28;91408;-88
2022/12/07 00:30:01;;;;;;;23.25;17.02;;;5.60;99.90;6.00;99713.00;;;;341874;28;83484;-87
2022/12/07 00:30:14;;;;;;;22.70;16.63;;;5.60;99.90;5.90;99723.00;;;;342553;28;89495;-87
2022/12/07 00:30:26;;;;;;;22.90;16.85;;;5.60;99.90;5.70;99727.00;;;;340283;28;86095;-88
2022/12/07 00:30:39;;;;;;;21.80;17.00;;;5.60;99.90;5.70;99709.00;;;;340837;28;92007;-89
2022/12/07 00:30:51;;;;;;;22.15;17.20;;;5.60;99.90;5.80;99721.00;;;;339437;28;87463;-88
2022/12/07 00:31:05;;;;;;;22.75;16.70;;;5.60;99.90;6.00;99728.00;;;;343296;28;90167;-88
2022/12/07 00:31:20;;;;;;;22.40;16.17;;;5.60;99.90;5.90;99714.00;;;;341271;28;83735;-88
2022/12/07 00:31:38;;;;;;;22.98;16.70;;;5.60;99.90;5.80;99717.00;;;;344475;28;91582;-89
2022/12/07 00:31:51;;;;;;;23.33;17.10;;;5.70;99.90;5.60;99728.00;;;;342250;28;87123;-88
2022/12/07 00:32:03;;;;;;;22.65;16.60;;;5.60;99.90;5.70;99723.00;;;;341462;28;92780;-89
2022/12/07 00:32:16;;;;;;;22.88;16.30;;;5.60;99.90;5.80;99719.00;;;;339428;28;87278;-88
2022/12/07 00:32:32;;;;;;;23.33;16.15;;;5.60;99.90;6.00;99720.00;;;;339248;28;90728;-89
2022/12/07 00:32:45;;;;;;;22.58;15.35;;;5.60;99.90;6.10;99717.00;;;;342164;28;86143;-89
2022/12/07 00:32:57;;;;;;;21.10;15.13;;;5.60;99.90;6.00;99709.00;;;;341821;28;92143;-89
2022/12/07 00:33:09;;;;;;;20.05;15.43;;;5.70;99.90;6.10;99709.00;;;;340773;28;86186;-88
2022/12/07 00:33:21;;;;;;;21.88;16.45;;;5.70;99.90;6.10;99715.00;;;;341898;28;90732;-87
2022/12/07 00:33:34;;;;;;;24.60;17.95;;;5.70;99.90;6.10;99710.00;;;;340849;28;86259;-89
2022/12/07 00:33:46;;;;;;;26.35;18.60;;;5.70;99.90;6.20;99717.00;;;;342967;28;91740;-89
2022/12/07 00:33:58;;;;;;;23.65;17.90;;;5.70;99.90;6.20;99715.00;;;;340651;28;86283;-88
2022/12/07 00:34:17;;;;;;;21.63;17.20;;;5.70;99.90;5.90;99711.00;;;;341712;28;92844;-88
2022/12/07 00:34:29;;;;;;;23.48;16.95;;;5.70;99.90;5.90;99713.00;;;;341990;28;86429;-88
2022/12/07 00:34:41;;;;;;;24.33;17.10;;;5.70;99.90;5.90;99707.00;;;;340350;28;91805;-88
2022/12/07 00:34:54;;;;;;;24.60;17.40;;;5.60;99.90;6.00;99710.00;;;;341913;28;87379;-89
2022/12/07 00:35:06;;;;;;;24.80;17.45;;;5.70;99.90;6.00;99717.00;;;;338894;28;90906;-88
2022/12/07 00:35:18;;;;;;;26.40;17.25;;;5.70;99.90;6.00;99718.00;;;;341973;28;86294;-89
2022/12/07 00:35:31;;;;;;;24.90;16.65;;;5.60;99.90;5.90;99717.00;;;;341709;28;91772;-88
2022/12/07 00:35:43;;;;;;;22.45;16.33;;;5.70;99.90;5.80;99712.00;;;;343283;28;85848;-88
2022/12/07 00:35:59;;;;;;;22.48;16.60;;;5.70;99.90;5.90;99715.00;;;;339130;28;91941;-89
2022/12/07 00:36:13;;;;;;;24.48;17.45;;;5.70;99.90;6.00;99710.00;;;;339007;28;86164;-89
2022/12/07 00:36:25;;;;;;;26.25;17.52;;;5.70;99.90;6.00;99711.00;;;;342647;28;91243;-89
2022/12/07 00:36:38;;;;;;;24.30;17.08;;;5.70;99.90;6.10;99717.00;;;;340463;28;86002;-86
2022/12/07 00:36:50;;;;;;;21.38;16.23;;;5.70;99.90;6.10;99712.00;;;;342778;28;91208;-89
2022/12/07 00:37:02;;;;;;;23.10;16.70;;;5.70;99.90;6.20;99712.00;;;;344336;28;87532;-88
2022/12/07 00:37:14;;;;;;;23.63;16.60;;;5.70;99.90;6.20;99716.00;;;;342856;28;91073;-88
2022/12/07 00:37:26;;;;;;;23.73;16.58;;;5.70;99.90;6.20;99712.00;;;;340361;28;87400;-88
2022/12/07 00:37:37;;;;;;;22.15;16.27;;;5.70;99.90;6.10;99709.00;;;;344060;28;91543;-89
2022/12/07 00:37:49;;;;;;;21.92;16.40;;;5.70;99.90;6.20;99705.00;;;;341608;28;87075;-89
2022/12/07 00:38:01;;;;;;;23.13;16.90;;;5.70;99.90;6.10;99714.00;;;;342885;28;91383;-89
2022/12/07 00:38:13;;;;;;;25.55;17.63;;;5.70;99.90;6.10;99704.00;;;;343362;28;85767;-88
2022/12/07 00:38:28;;;;;;;25.67;17.48;;;5.70;99.90;6.10;99712.00;;;;341570;28;93166;-88
2022/12/07 00:38:41;;;;;;;23.63;17.05;;;5.70;99.90;6.20;99706.00;;;;340568;28;87731;-89
2022/12/07 00:38:57;;;;;;;23.35;17.00;;;5.70;99.90;6.30;99710.00;;;;341440;28;91832;-89
2022/12/07 00:39:09;;;;;;;22.33;16.60;;;5.70;99.90;6.20;99714.00;;;;341876;28;86884;-88
2022/12/07 00:39:21;;;;;;;22.23;16.65;;;5.80;99.90;6.10;99710.00;;;;340415;28;90835;-88
2022/12/07 00:39:33;;;;;;;23.70;17.48;;;5.70;99.90;6.10;99696.00;;;;340586;28;86080;-88
2022/12/07 00:39:46;;;;;;;23.65;17.77;;;5.70;99.90;5.90;99699.00;;;;340279;28;90695;-88
2022/12/07 00:39:58;;;;;;;23.67;17.25;;;5.70;99.90;5.80;99704.00;;;;340763;28;86750;-88
2022/12/07 00:40:11;;;;;;;23.02;16.95;;;5.70;99.90;5.70;99709.00;;;;342640;28;90664;-88
2022/12/07 00:40:23;;;;;;;22.33;17.10;;;5.70;99.90;6.00;99714.00;;;;340319;28;86002;-88
2022/12/07 00:40:35;;;;;;;22.80;17.25;;;5.70;99.90;6.00;99703.00;;;;342636;28;91665;-88
2022/12/07 00:40:58;;;;;;;23.65;17.40;;;5.70;99.90;6.10;99709.00;;;;344447;28;84880;-88
2022/12/07 00:41:21;;;;;;;22.65;17.33;;;5.70;99.90;5.90;99712.00;;;;342909;28;91948;-89
2022/12/07 00:41:33;;;;;;;25.38;18.65;;;5.70;99.90;6.00;99704.00;;;;339456;28;86826;-87
2022/12/07 00:41:45;;;;;;;24.63;17.75;;;5.70;99.90;5.80;99711.00;;;;340555;28;91094;-88
2022/12/07 00:41:57;;;;;;;24.45;16.55;;;5.70;99.90;5.70;99709.00;;;;340814;28;87520;-88
2022/12/07 00:42:09;;;;;;;24.02;16.88;;;5.70;99.90;5.60;99701.00;;;;341570;28;90554;-89
2022/12/07 00:42:21;;;;;;;23.48;17.17;;;5.70;99.90;5.60;99709.00;;;;338886;28;87297;-88
2022/12/07 00:42:33;;;;;;;23.30;17.33;;;5.60;99.90;5.60;99705.00;;;;340119;28;92013;-89
2022/12/07 00:42:45;;;;;;;24.10;18.58;;;5.60;99.90;5.60;99710.00;;;;343188;28;87086;-89
2022/12/07 00:42:57;;;;;;;25.17;18.63;;;5.60;99.90;5.70;99707.00;;;;342718;28;92606;-89
2022/12/07 00:43:08;;;;;;;26.16;17.86;;;5.60;99.90;5.80;99704.00;;;;342983;28;86216;-88
2022/12/07 00:43:20;;;;;;;25.52;17.00;;;5.60;99.90;5.70;99708.00;;;;342670;28;92101;-89
2022/12/07 00:43:32;;;;;;;22.90;16.50;;;5.60;99.90;5.70;99696.00;;;;341777;28;86951;-89
2022/12/07 00:43:45;;;;;;;20.45;15.50;;;5.60;99.90;5.80;99704.00;;;;342687;28;91656;-89
2022/12/07 00:43:57;;;;;;;21.48;16.15;;;5.60;99.90;5.80;99709.00;;;;343123;28;87075;-88
2022/12/07 00:44:09;;;;;;;24.30;17.20;;;5.60;99.90;5.80;99707.00;;;;340424;28;91694;-89
2022/12/07 00:44:21;;;;;;;24.27;17.23;;;5.60;99.90;5.80;99700.00;;;;340639;28;85866;-88
2022/12/07 00:44:33;;;;;;;23.02;16.42;;;5.60;99.90;5.90;99707.00;;;;340498;28;90663;-89
2022/12/07 00:44:45;;;;;;;23.83;16.75;;;5.60;99.90;5.80;99709.00;;;;343306;28;87098;-89
2022/12/07 00:44:57;;;;;;;25.17;17.60;;;5.60;99.90;5.90;99706.00;;;;340272;28;93232;-88
2022/12/07 00:45:09;;;;;;;25.02;17.58;;;5.60;99.90;5.80;99703.00;;;;341590;28;87310;-89
2022/12/07 00:45:21;;;;;;;23.52;17.55;;;5.60;99.90;5.80;99704.00;;;;341553;28;91957;-88
2022/12/07 00:45:33;;;;;;;22.50;17.13;;;5.60;99.90;5.90;99717.00;;;;340649;28;85997;-88
2022/12/07 00:45:45;;;;;;;22.13;16.75;;;5.60;99.90;6.00;99709.00;;;;342981;28;92175;-88
2022/12/07 00:45:57;;;;;;;23.06;16.60;;;5.60;99.90;6.00;99705.00;;;;340565;28;87665;-89
2022/12/07 00:46:09;;;;;;;23.00;16.65;;;5.60;99.90;5.90;99707.00;;;;344373;28;91863;-89
2022/12/07 00:46:22;;;;;;;23.40;17.35;;;5.60;99.90;5.80;99710.00;;;;340569;28;87750;-89
2022/12/07 00:46:34;;;;;;;23.42;16.98;;;5.60;99.90;5.80;99705.00;;;;342773;28;90686;-88
2022/12/07 00:46:46;;;;;;;24.10;17.17;;;5.50;99.90;5.80;99712.00;;;;340324;28;85997;-89
2022/12/07 00:46:58;;;;;;;23.70;16.92;;;5.50;99.90;5.80;99704.00;;;;342618;28;93216;-89
2022/12/07 00:47:10;;;;;;;24.20;16.50;;;5.50;99.90;5.90;99705.00;;;;340262;28;86548;-89
2022/12/07 00:47:22;;;;;;;24.60;16.27;;;5.50;99.90;5.80;99716.00;;;;343022;28;89554;-88
2022/12/07 00:47:34;;;;;;;22.27;16.33;;;5.50;99.90;5.70;99712.00;;;;340509;28;86683;-89
2022/12/07 00:47:46;;;;;;;21.90;16.58;;;5.50;99.90;5.50;99704.00;;;;342973;28;90818;-89
2022/12/07 00:47:58;;;;;;;23.33;17.25;;;5.50;99.90;5.70;99711.00;;;;340701;28;85697;-88
2022/12/07 00:48:10;;;;;;;23.02;17.34;;;5.50;99.90;5.60;99707.00;;;;340397;28;91024;-88
2022/12/07 00:48:21;;;;;;;22.35;17.40;;;5.50;99.90;5.40;99717.00;;;;339166;28;87143;-88
2022/12/07 00:48:34;;;;;;;24.30;18.38;;;5.50;99.90;5.40;99713.00;;;;343038;28;91010;-88
2022/12/07 00:48:46;;;;;;;23.90;18.08;;;5.40;99.90;5.50;99718.00;;;;343290;28;86420;-89
2022/12/07 00:48:58;;;;;;;22.27;16.50;;;5.40;99.90;5.50;99707.00;;;;344309;28;92851;-88
2022/12/07 00:49:10;;;;;;;21.58;16.25;;;5.40;99.90;5.50;99713.00;;;;343306;28;86498;-88
2022/12/07 00:49:22;;;;;;;22.15;16.42;;;5.40;99.90;5.60;99708.00;;;;340287;28;91917;-88
2022/12/07 00:49:34;;;;;;;22.75;16.05;;;5.40;99.90;5.50;99712.00;;;;339390;28;87788;-89
2022/12/07 00:49:46;;;;;;;22.65;16.10;;;5.40;99.90;5.70;99711.00;;;;342597;28;90511;-88
2022/12/07 00:49:58;;;;;;;21.77;16.20;;;5.40;99.90;5.80;99713.00;;;;341650;28;85783;-89
2022/12/07 00:50:10;;;;;;;22.83;17.02;;;5.40;99.90;5.60;99710.00;;;;341285;28;91644;-89
2022/12/07 00:50:22;;;;;;;23.40;16.83;;;5.40;99.90;5.50;99718.00;;;;342722;28;86072;-88
2022/12/07 00:50:34;;;;;;;23.45;16.08;;;5.40;99.90;5.40;99718.00;;;;340003;28;91859;-89
2022/12/07 00:50:46;;;;;;;22.88;16.77;;;5.40;99.90;5.40;99714.00;;;;340270;28;85551;-89
2022/12/07 00:50:58;;;;;;;22.92;16.95;;;5.40;99.90;5.60;99707.00;;;;339918;28;92772;-88
2022/12/07 00:51:11;;;;;;;23.27;17.33;;;5.40;99.90;5.50;99715.00;;;;340106;28;84831;-89
2022/12/07 00:51:24;;;;;;;23.45;16.88;;;5.40;99.90;5.40;99715.00;;;;341285;28;92244;-89
2022/12/07 00:51:36;;;;;;;25.17;17.20;;;5.40;99.90;5.60;99712.00;;;;343201;28;84801;-88
2022/12/07 00:51:49;;;;;;;22.85;16.33;;;5.40;99.90;5.70;99714.00;;;;341360;28;92042;-89
2022/12/07 00:52:00;;;;;;;22.02;16.30;;;5.40;99.90;5.70;99723.00;;;;341586;28;85116;-89
2022/12/07 00:52:12;;;;;;;21.48;16.10;;;5.40;99.90;5.70;99718.00;;;;341186;28;90813;-88
2022/12/07 00:52:24;;;;;;;23.50;16.85;;;5.40;99.90;5.70;99712.00;;;;341557;28;86261;-89
2022/12/07 00:52:36;;;;;;;24.95;17.25;;;5.40;99.90;5.80;99707.00;;;;342908;28;90584;-88
2022/12/07 00:52:48;;;;;;;25.48;17.50;;;5.40;99.90;5.80;99712.00;;;;341693;28;87078;-88
2022/12/07 00:52:59;;;;;;;25.98;17.62;;;5.40;99.90;5.90;99710.00;;;;339647;28;91959;-89
2022/12/07 00:53:11;;;;;;;24.35;17.00;;;5.40;99.90;5.80;99713.00;;;;341588;28;85961;-88
2022/12/07 00:53:23;;;;;;;22.92;17.23;;;5.40;99.90;5.80;99713.00;;;;341442;28;90440;-89
2022/12/07 00:53:36;;;;;;;22.15;17.08;;;5.40;99.90;5.70;99706.00;;;;344366;28;86086;-88
2022/12/07 00:53:52;;;;;;;22.13;16.73;;;5.40;99.90;5.70;99711.00;;;;341133;28;91079;-89
2022/12/07 00:54:04;;;;;;;23.08;17.00;;;5.40;99.90;5.80;99704.00;;;;342846;28;87181;-88
2022/12/07 00:54:16;;;;;;;22.42;16.02;;;5.40;99.90;5.80;99713.00;;;;341427;28;91575;-89
2022/12/07 00:54:28;;;;;;;22.00;15.73;;;5.40;99.90;5.90;99702.00;;;;342937;28;86924;-89
2022/12/07 00:54:40;;;;;;;22.33;16.55;;;5.40;99.90;5.90;99711.00;;;;340101;28;91765;-88
2022/12/07 00:54:52;;;;;;;22.25;16.05;;;5.50;99.90;5.90;99711.00;;;;344378;28;87069;-89
2022/12/07 00:55:04;;;;;;;24.38;16.13;;;5.50;99.90;5.90;99716.00;;;;342534;28;92719;-88
2022/12/07 00:55:16;;;;;;;23.58;16.30;;;5.40;99.90;6.00;99714.00;;;;340227;28;86184;-89
2022/12/07 00:55:33;;;;;;;22.08;16.42;;;5.50;99.90;5.90;99717.00;;;;340203;28;90923;-89
2022/12/07 00:55:45;;;;;;;21.58;16.50;;;5.50;99.90;5.90;99709.00;;;;342941;28;87150;-89
2022/12/07 00:55:57;;;;;;;21.00;16.35;;;5.50;99.90;5.70;99716.00;;;;339939;28;92175;-88
2022/12/07 00:56:11;;;;;;;21.90;15.90;;;5.50;99.90;5.80;99703.00;;;;342983;28;85946;-89
2022/12/07 00:56:26;;;;;;;22.23;16.05;;;5.50;99.90;5.70;99707.00;;;;340040;28;91156;-89
2022/12/07 00:56:38;;;;;;;21.42;15.85;;;5.50;99.90;5.60;99704.00;;;;337852;28;87242;-88
2022/12/07 00:56:49;;;;;;;23.10;16.50;;;5.40;99.90;5.60;99702.00;;;;341782;28;91014;-88
2022/12/07 00:57:02;;;;;;;22.60;16.42;;;5.50;99.90;5.50;99704.00;;;;342015;28;87099;-89
2022/12/07 00:57:14;;;;;;;21.83;15.95;;;5.50;99.90;5.60;99704.00;;;;343246;28;92800;-88
2022/12/07 00:57:25;;;;;;;23.45;16.80;;;5.50;99.90;5.70;99706.00;;;;342342;28;83465;-89
2022/12/07 00:57:37;;;;;;;25.65;17.55;;;5.40;99.90;5.60;99706.00;;;;341647;28;90850;-88
2022/12/07 00:57:49;;;;;;;26.42;17.90;;;5.40;99.90;5.60;99703.00;;;;340591;28;84649;-89